Time;durP1;ratioP1;P1;durP2;ratioP2;P2;SDS_P1;SDS_P2;PMS_P1;PMS_P2;Temp;Humidity;BMP_temperature;BMP_pressure;BME280_temperature;BME280_humidity;BME280_pressure;Samples;Min_cycle;Max_cycle;Signal;HPM_P1;HPM_P2
2023/10/23 00:00:13;;;;;;;11.48;5.05;;;;;;;21.38;49.38;100595.53;2299677;76;51673;-75
2023/10/23 00:03:15;;;;;;;14.35;5.50;;;;;;;21.40;49.30;100597.51;2298763;76;50688;-75
2023/10/23 00:06:18;;;;;;;11.22;4.97;;;;;;;21.42;49.31;100595.41;2272483;76;50341;-76
2023/10/23 00:09:20;;;;;;;14.83;5.58;;;;;;;21.43;49.28;100598.96;2247946;76;52400;-75
2023/10/23 00:12:23;;;;;;;14.33;5.50;;;;;;;21.48;49.22;100601.88;2270150;76;52600;-76
2023/10/23 00:15:25;;;;;;;14.83;5.35;;;;;;;21.50;49.18;100597.95;2337993;76;50621;-73
2023/10/23 00:18:28;;;;;;;14.05;6.08;;;;;;;21.52;49.18;100602.59;2286351;76;49976;-75
2023/10/23 00:21:30;;;;;;;11.08;5.12;;;;;;;21.55;49.13;100606.73;2313425;76;50286;-75
2023/10/23 00:24:32;;;;;;;17.77;5.90;;;;;;;21.58;49.10;100596.07;2339534;76;51600;-75
2023/10/23 00:27:34;;;;;;;9.00;5.08;;;;;;;21.61;49.04;100602.42;2286431;76;51536;-75
2023/10/23 00:30:36;;;;;;;10.70;5.12;;;;;;;21.59;49.02;100601.79;2326287;76;51525;-73
2023/10/23 00:33:38;;;;;;;13.60;5.35;;;;;;;21.55;49.07;100609.95;2298636;76;52341;-73
2023/10/23 00:36:41;;;;;;;11.73;4.97;;;;;;;21.50;49.17;100614.59;2325704;75;50246;-74
2023/10/23 00:39:43;;;;;;;12.98;5.28;;;;;;;21.44;49.26;100613.55;2272894;76;49932;-73
2023/10/23 00:42:45;;;;;;;11.55;5.00;;;;;;;21.38;49.38;100610.33;2325713;76;50672;-74
2023/10/23 00:45:50;;;;;;;9.58;5.03;;;;;;;21.31;49.54;100607.58;2298942;76;50617;-74
2023/10/23 00:48:53;;;;;;;11.67;5.20;;;;;;;21.28;49.66;100609.85;2325518;76;51294;-75
2023/10/23 00:51:55;;;;;;;7.90;5.22;;;;;;;21.29;49.69;100609.63;2325841;76;51580;-75
2023/10/23 00:54:57;;;;;;;10.28;5.05;;;;;;;21.30;49.70;100603.76;2325708;75;51344;-76
2023/10/23 00:58:00;;;;;;;13.95;5.00;;;;;;;21.33;49.68;100604.70;2325154;76;52343;-75
2023/10/23 01:01:03;;;;;;;10.78;5.03;;;;;;;21.35;49.63;100603.98;2325854;75;50224;-75
2023/10/23 01:04:06;;;;;;;11.78;5.47;;;;;;;21.37;49.63;100611.31;2298823;76;50784;-75
2023/10/23 01:07:08;;;;;;;12.33;5.37;;;;;;;21.37;49.64;100606.45;2325677;76;50282;-76
2023/10/23 01:10:10;;;;;;;11.00;5.60;;;;;;;21.40;49.60;100612.31;2269700;76;51001;-75
2023/10/23 01:13:13;;;;;;;9.33;4.97;;;;;;;21.42;49.52;100606.19;2297865;76;51474;-76
2023/10/23 01:16:15;;;;;;;11.43;4.90;;;;;;;21.45;49.48;100617.92;2298945;76;50259;-76
2023/10/23 01:19:17;;;;;;;11.08;5.22;;;;;;;21.47;49.47;100607.75;2272232;76;50625;-76
2023/10/23 01:22:19;;;;;;;11.38;4.80;;;;;;;21.52;49.38;100611.19;2247879;76;52185;-74
2023/10/23 01:25:22;;;;;;;9.85;4.72;;;;;;;21.53;49.35;100620.42;2325739;76;51774;-76
2023/10/23 01:28:24;;;;;;;10.15;5.05;;;;;;;21.55;49.34;100618.84;2299003;76;50746;-76
2023/10/23 01:31:26;;;;;;;9.45;4.47;;;;;;;21.53;49.33;100621.77;2272157;76;51364;-76
2023/10/23 01:34:28;;;;;;;10.90;4.72;;;;;;;21.49;49.38;100618.33;2272295;76;51504;-75
2023/10/23 01:37:31;;;;;;;11.20;5.08;;;;;;;21.42;49.51;100619.64;2324980;76;52442;-76
2023/10/23 01:40:33;;;;;;;10.30;4.40;;;;;;;21.38;49.58;100622.44;2301944;76;49797;-76
2023/10/23 01:43:35;;;;;;;12.65;4.75;;;;;;;21.33;49.71;100630.78;2259814;77;51510;-76
2023/10/23 01:46:37;;;;;;;8.73;4.40;;;;;;;21.27;49.82;100631.05;2260930;77;52350;-76
2023/10/23 01:49:40;;;;;;;11.28;4.47;;;;;;;21.24;49.94;100632.80;2261045;77;51582;-76
2023/10/23 01:52:42;;;;;;;9.05;4.20;;;;;;;21.23;50.00;100634.67;2260710;77;51571;-76
2023/10/23 01:55:44;;;;;;;9.65;4.62;;;;;;;21.25;50.02;100626.41;2261015;77;50332;-75
2023/10/23 01:58:46;;;;;;;8.55;5.12;;;;;;;21.26;50.02;100630.22;2261256;77;50394;-76
2023/10/23 02:01:48;;;;;;;6.70;3.83;;;;;;;21.30;49.96;100632.02;2261002;77;50916;-75
2023/10/23 02:04:50;;;;;;;10.32;4.35;;;;;;;21.32;49.94;100629.92;2260757;77;50717;-76
2023/10/23 02:07:53;;;;;;;7.95;4.25;;;;;;;21.36;49.86;100641.97;2260968;77;51590;-76
2023/10/23 02:10:55;;;;;;;10.28;4.28;;;;;;;21.37;49.85;100627.46;2255558;76;52396;-76
2023/10/23 02:13:57;;;;;;;11.03;4.58;;;;;;;21.42;49.75;100634.45;2285899;76;52201;-74
2023/10/23 02:16:59;;;;;;;9.98;4.40;;;;;;;21.47;49.65;100635.19;2260840;77;50211;-75
2023/10/23 02:20:02;;;;;;;10.05;4.28;;;;;;;21.49;49.64;100640.69;2260951;77;50680;-74
2023/10/23 02:23:04;;;;;;;9.93;4.55;;;;;;;21.50;49.60;100632.94;2286482;76;51564;-74
2023/10/23 02:26:06;;;;;;;10.50;4.50;;;;;;;21.47;49.61;100636.02;2260656;77;52357;-74
2023/10/23 02:29:09;;;;;;;7.75;3.72;;;;;;;21.45;49.64;100642.14;2260833;77;50499;-74
2023/10/23 02:32:11;;;;;;;7.95;4.12;;;;;;;21.41;49.71;100644.91;2236301;76;50125;-74
2023/10/23 02:35:13;;;;;;;10.10;4.67;;;;;;;21.37;49.82;100645.48;2260972;77;51701;-73
2023/10/23 02:38:15;;;;;;;10.82;4.75;;;;;;;21.29;49.94;100643.80;2260810;76;50654;-74
2023/10/23 02:41:17;;;;;;;7.08;4.05;;;;;;;21.23;50.09;100651.34;2258056;76;50243;-74
2023/10/23 02:44:20;;;;;;;8.33;3.95;;;;;;;21.20;50.20;100655.26;2258947;77;50633;-74
2023/10/23 02:47:22;;;;;;;9.33;4.12;;;;;;;21.22;50.24;100663.11;2261110;77;50094;-74
2023/10/23 02:50:24;;;;;;;7.50;4.33;;;;;;;21.22;50.26;100673.39;2286885;76;50731;-74
2023/10/23 02:53:26;;;;;;;9.65;4.37;;;;;;;21.24;50.24;100669.12;2260882;77;50606;-73
2023/10/23 02:56:28;;;;;;;9.45;3.95;;;;;;;21.25;50.24;100678.36;2261112;76;50763;-73
2023/10/23 02:59:32;;;;;;;9.53;4.17;;;;;;;21.29;50.15;100672.05;2260947;77;52698;-73
2023/10/23 03:02:35;;;;;;;9.45;4.00;;;;;;;21.33;50.11;100675.20;2260778;77;51529;-74
2023/10/23 03:05:42;;;;;;;8.40;3.80;;;;;;;21.33;50.09;100676.02;2261220;77;51507;-74
2023/10/23 03:08:41;;;;;;;10.93;3.75;;;;;;;21.39;50.01;100673.06;2285671;77;22364;-74
2023/10/23 03:11:43;;;;;;;9.13;3.80;;;;;;;21.41;49.94;100681.25;2290310;76;51536;-73
2023/10/23 03:14:46;;;;;;;9.20;4.05;;;;;;;21.43;49.90;100680.55;2337483;74;50357;-74
2023/10/23 03:17:48;;;;;;;8.95;4.65;;;;;;;21.43;49.89;100689.97;2339550;75;52349;-73
2023/10/23 03:20:50;;;;;;;8.43;4.53;;;;;;;21.41;49.92;100684.47;2313430;76;50012;-74
2023/10/23 03:23:52;;;;;;;13.53;4.67;;;;;;;21.37;49.97;100693.41;2337603;76;50375;-73
2023/10/23 03:26:55;;;;;;;6.33;4.53;;;;;;;21.34;50.05;100692.98;2313249;76;50218;-73
2023/10/23 03:29:57;;;;;;;12.37;3.90;;;;;;;21.27;50.12;100692.45;2337809;76;50405;-73
2023/10/23 03:32:59;;;;;;;8.90;3.95;;;;;;;21.22;50.21;100692.22;2261005;76;51655;-73
2023/10/23 03:36:01;;;;;;;9.05;4.25;;;;;;;21.18;50.34;100688.26;2313288;76;51487;-73
2023/10/23 03:39:03;;;;;;;9.83;4.10;;;;;;;21.16;50.45;100691.66;2313475;76;50678;-73
2023/10/23 03:42:06;;;;;;;7.72;3.47;;;;;;;21.17;50.47;100697.38;2276903;76;52382;-74
2023/10/23 03:45:08;;;;;;;9.53;4.15;;;;;;;21.18;50.47;100693.64;2337926;76;50408;-75
2023/10/23 03:48:10;;;;;;;9.28;3.98;;;;;;;21.22;50.41;100685.98;2313740;76;51535;-75
2023/10/23 03:51:13;;;;;;;11.78;4.25;;;;;;;21.25;50.39;100688.30;2286992;76;50231;-74
2023/10/23 03:54:15;;;;;;;8.85;3.60;;;;;;;21.29;50.30;100686.33;2313570;76;50554;-75
2023/10/23 03:57:17;;;;;;;9.95;3.98;;;;;;;21.32;50.25;100690.48;2287759;76;50125;-75
2023/10/23 04:00:19;;;;;;;7.80;4.05;;;;;;;21.33;50.22;100689.47;2286479;76;51353;-75
2023/10/23 04:03:21;;;;;;;9.15;3.83;;;;;;;21.38;50.16;100695.12;2313223;76;51416;-74
2023/10/23 04:06:24;;;;;;;12.20;3.90;;;;;;;21.37;50.12;100692.06;2287565;76;52456;-74
2023/10/23 04:09:31;;;;;;;9.48;4.10;;;;;;;21.36;50.15;100698.48;2313446;76;50709;-75
2023/10/23 04:12:33;;;;;;;12.73;4.60;;;;;;;21.33;50.25;100704.80;2325528;76;51559;-74
2023/10/23 04:15:35;;;;;;;13.65;4.17;;;;;;;21.27;50.45;100710.44;2298935;76;52563;-74
2023/10/23 04:18:37;;;;;;;12.28;4.10;;;;;;;21.22;50.61;100715.09;2299109;76;51482;-75
2023/10/23 04:21:40;;;;;;;10.58;4.50;;;;;;;21.17;50.68;100718.04;2298847;76;51348;-76
2023/10/23 04:24:42;;;;;;;16.62;4.30;;;;;;;21.13;50.82;100724.87;2298753;76;50254;-76
2023/10/23 04:27:44;;;;;;;14.63;4.25;;;;;;;21.12;50.86;100723.19;2299106;76;50613;-75
2023/10/23 04:30:46;;;;;;;13.90;4.65;;;;;;;21.15;50.91;100717.44;2298957;76;51018;-75
2023/10/23 04:33:48;;;;;;;9.13;3.90;;;;;;;21.19;50.92;100730.79;2298684;76;51538;-76
2023/10/23 04:36:51;;;;;;;15.78;4.67;;;;;;;21.21;50.92;100728.73;2272451;76;51433;-75
2023/10/23 04:39:53;;;;;;;10.55;4.05;;;;;;;21.24;50.95;100728.33;2299193;76;51498;-76
2023/10/23 04:42:55;;;;;;;11.12;4.28;;;;;;;21.27;51.03;100734.17;2333516;76;50713;-76
2023/10/23 04:45:58;;;;;;;19.00;4.58;;;;;;;21.33;50.93;100731.19;2313180;76;52330;-75
2023/10/23 04:49:00;;;;;;;12.33;4.47;;;;;;;21.33;50.90;100734.41;2268947;75;51037;-75
2023/10/23 04:52:02;;;;;;;14.47;3.90;;;;;;;21.33;50.84;100729.84;2338952;75;51451;-74
2023/10/23 04:55:05;;;;;;;13.98;4.20;;;;;;;21.30;50.79;100740.50;2312109;74;50275;-75
2023/10/23 04:58:08;;;;;;;14.20;4.20;;;;;;;21.28;50.84;100738.51;2338990;75;50716;-76
2023/10/23 05:01:18;;;;;;;17.37;3.90;;;;;;;21.23;50.86;100746.88;2307611;75;50092;-75
2023/10/23 05:04:20;;;;;;;10.70;3.80;;;;;;;21.19;50.95;100745.59;2351276;74;50270;-75
2023/10/23 05:07:22;;;;;;;12.23;3.85;;;;;;;21.14;51.07;100748.05;2294296;76;50252;-76
2023/10/23 05:10:24;;;;;;;13.65;4.20;;;;;;;21.09;51.16;100749.48;2250050;76;50901;-76
2023/10/23 05:13:27;;;;;;;14.85;4.03;;;;;;;21.07;51.79;100746.16;2287204;77;51548;-77
2023/10/23 05:16:29;;;;;;;17.23;4.80;;;;;;;21.09;51.75;100749.48;2287153;76;50029;-78
2023/10/23 05:19:31;;;;;;;15.98;4.22;;;;;;;21.13;51.67;100743.70;2260398;75;51220;-77
2023/10/23 05:22:33;;;;;;;14.28;4.60;;;;;;;21.18;51.67;100747.45;2322757;75;50352;-77
2023/10/23 05:25:36;;;;;;;17.12;4.97;;;;;;;21.22;51.56;100754.12;2349686;75;50241;-77
2023/10/23 05:28:43;;;;;;;17.35;4.58;;;;;;;21.25;51.54;100760.97;2372222;75;50702;-77
2023/10/23 05:31:45;;;;;;;15.60;4.80;;;;;;;21.27;51.59;100753.50;2371640;75;51459;-75
2023/10/23 05:34:47;;;;;;;14.28;4.28;;;;;;;21.31;51.54;100765.55;2322714;75;51633;-74
2023/10/23 05:37:49;;;;;;;22.65;4.90;;;;;;;21.31;51.49;100760.16;2321696;75;51451;-75
2023/10/23 05:40:56;;;;;;;22.93;4.83;;;;;;;21.30;51.58;100761.20;2328378;76;50292;-74
2023/10/23 05:43:59;;;;;;;17.37;5.10;;;;;;;21.26;51.78;100765.30;2327277;76;49554;-76
2023/10/23 05:47:01;;;;;;;39.53;6.42;;;;;;;21.25;52.15;100772.55;2275447;76;50226;-76
2023/10/23 05:50:04;;;;;;;31.23;5.53;;;;;;;21.22;52.22;100769.41;2302738;76;51665;-77
2023/10/23 05:53:06;;;;;;;43.63;7.65;;;;;;;21.17;52.43;100774.55;2276367;76;51621;-77
2023/10/23 05:56:08;;;;;;;26.82;5.55;;;;;;;21.15;52.55;100772.59;2302545;76;51556;-77
2023/10/23 05:59:11;;;;;;;30.45;6.28;;;;;;;21.15;52.92;100773.94;2303214;76;52529;-77
2023/10/23 06:02:13;;;;;;;41.95;7.03;;;;;;;21.22;53.11;100777.48;2276728;76;51424;-71
2023/10/23 06:05:15;;;;;;;48.87;7.85;;;;;;;21.26;53.05;100787.66;2328052;76;50383;-77
2023/10/23 06:08:17;;;;;;;45.75;8.43;;;;;;;21.28;53.08;100786.13;2303926;76;52496;-77
2023/10/23 06:11:19;;;;;;;32.83;6.87;;;;;;;21.30;53.02;100782.73;2331629;75;50440;-77
2023/10/23 06:14:22;;;;;;;28.52;7.65;;;;;;;21.28;53.04;100782.92;2287208;76;50344;-77
2023/10/23 06:17:24;;;;;;;29.10;6.92;;;;;;;21.24;53.09;100788.37;2263045;77;50760;-76
2023/10/23 06:20:27;;;;;;;32.53;7.33;;;;;;;21.20;53.10;100788.98;2262518;77;51669;-75
2023/10/23 06:23:29;;;;;;;24.72;6.22;;;;;;;21.18;53.13;100801.80;2260683;77;49519;-77
2023/10/23 06:26:31;;;;;;;30.75;6.85;;;;;;;21.12;53.17;100807.94;2288137;77;50380;-75
2023/10/23 06:29:33;;;;;;;23.38;6.30;;;;;;;21.06;53.27;100807.70;2288053;76;50736;-74
2023/10/23 06:32:35;;;;;;;31.23;7.58;;;;;;;21.10;53.23;100811.67;2237283;77;51184;-75
2023/10/23 06:35:38;;;;;;;26.87;5.90;;;;;;;21.15;53.11;100812.95;2275383;76;50670;-76
2023/10/23 06:38:40;;;;;;;23.73;6.03;;;;;;;21.20;53.01;100817.23;2300248;76;50673;-75
2023/10/23 06:41:42;;;;;;;25.20;6.95;;;;;;;21.28;52.79;100814.39;2301843;76;50711;-76
2023/10/23 06:44:44;;;;;;;25.60;6.03;;;;;;;21.28;52.72;100818.42;2286223;77;51500;-74
2023/10/23 06:47:51;;;;;;;20.15;5.40;;;;;;;21.28;52.67;100825.16;2269654;76;51005;-75
2023/10/23 06:50:54;;;;;;;21.60;5.72;;;;;;;21.28;52.58;100827.33;2298828;76;50887;-74
2023/10/23 06:53:56;;;;;;;25.40;6.20;;;;;;;21.23;52.67;100834.33;2325521;76;50501;-75
2023/10/23 06:56:58;;;;;;;24.45;5.87;;;;;;;21.19;52.66;100829.84;2299270;76;50964;-74
2023/10/23 07:00:00;;;;;;;17.77;5.12;;;;;;;21.13;52.72;100829.80;2302706;76;50617;-75
2023/10/23 07:03:02;;;;;;;17.85;5.30;;;;;;;21.10;52.74;100825.12;2326162;75;51746;-74
2023/10/23 07:06:07;;;;;;;22.35;5.15;;;;;;;21.04;52.88;100819.19;2273248;76;51610;-74
2023/10/23 07:09:09;;;;;;;20.20;5.05;;;;;;;21.07;52.85;100816.11;2298810;75;50784;-75
2023/10/23 07:12:12;;;;;;;18.67;5.47;;;;;;;21.10;52.78;100820.27;2266543;76;52456;-75
2023/10/23 07:15:14;;;;;;;15.00;4.33;;;;;;;21.14;52.72;100816.66;2298865;76;50316;-76
2023/10/23 07:18:21;;;;;;;15.58;5.08;;;;;;;21.17;52.65;100815.77;2298849;76;51497;-75
2023/10/23 07:21:25;;;;;;;17.65;5.00;;;;;;;21.23;52.50;100820.35;2298579;75;52470;-74
2023/10/23 07:24:27;;;;;;;16.97;4.90;;;;;;;21.26;52.40;100825.34;2299102;76;24656;-73
2023/10/23 07:27:29;;;;;;;16.27;4.22;;;;;;;21.29;52.26;100825.46;2298606;76;50243;-74
2023/10/23 07:30:32;;;;;;;19.45;4.78;;;;;;;21.28;52.22;100825.98;2298796;76;51433;-74
2023/10/23 07:33:34;;;;;;;14.58;4.62;;;;;;;21.23;52.26;100823.05;2298475;75;50698;-73
2023/10/23 07:36:38;;;;;;;11.65;3.92;;;;;;;21.22;52.28;100829.95;2273385;76;52495;-74
2023/10/23 07:39:45;;;;;;;17.27;4.17;;;;;;;21.17;52.29;100829.22;2299309;76;22336;-74
2023/10/23 07:42:44;;;;;;;15.88;4.72;;;;;;;21.12;52.39;100834.84;2302220;76;22438;-75
2023/10/23 07:45:46;;;;;;;18.15;4.60;;;;;;;21.09;52.43;100843.66;2287424;76;52357;-74
2023/10/23 07:48:48;;;;;;;13.30;4.00;;;;;;;21.04;52.55;100854.17;2313161;76;51493;-74
2023/10/23 07:51:50;;;;;;;14.53;4.60;;;;;;;21.04;52.57;100851.48;2337826;76;50294;-74
2023/10/23 07:54:53;;;;;;;13.48;3.90;;;;;;;21.09;52.51;100848.18;2337451;75;49961;-74
2023/10/23 07:57:55;;;;;;;16.87;4.30;;;;;;;21.17;52.39;100859.31;2313171;76;51422;-75
2023/10/23 08:01:07;;;;;;;12.03;3.87;;;;;;;21.19;52.31;100856.75;2287517;76;51145;-75
2023/10/23 08:04:09;;;;;;;13.05;4.33;;;;;;;21.26;52.08;100863.53;2338160;74;50284;-74
2023/10/23 08:07:12;;;;;;;12.63;3.50;;;;;;;21.23;52.04;100855.34;2287485;76;50233;-74
2023/10/23 08:10:14;;;;;;;12.75;3.90;;;;;;;21.19;52.09;100858.09;2286774;75;51697;-74
2023/10/23 08:13:16;;;;;;;14.90;3.62;;;;;;;21.17;52.12;100861.52;2333422;76;51455;-75
2023/10/23 08:16:18;;;;;;;10.25;3.52;;;;;;;21.12;52.20;100863.09;2313365;76;50333;-75
2023/10/23 08:19:21;;;;;;;8.08;3.30;;;;;;;21.09;52.22;100862.48;2313163;76;50246;-75
2023/10/23 08:22:23;;;;;;;11.55;3.85;;;;;;;21.04;52.30;100866.77;2313720;76;50395;-75
2023/10/23 08:25:25;;;;;;;10.93;3.83;;;;;;;21.02;52.39;100869.67;2287579;76;51638;-75
2023/10/23 08:28:27;;;;;;;11.20;3.83;;;;;;;21.02;52.43;100869.67;2313445;76;50220;-75
2023/10/23 08:31:30;;;;;;;13.30;3.85;;;;;;;21.05;52.38;100871.96;2337935;76;50633;-75
2023/10/23 08:34:33;;;;;;;11.95;3.65;;;;;;;21.10;52.34;100878.94;2313073;76;49611;-73
2023/10/23 08:37:35;;;;;;;11.15;3.25;;;;;;;21.15;52.21;100866.77;2313338;76;51514;-74
2023/10/23 08:40:37;;;;;;;8.38;3.50;;;;;;;21.20;52.07;100874.58;2312037;76;51474;-74
2023/10/23 08:43:40;;;;;;;8.13;3.20;;;;;;;21.20;51.98;100881.30;2333477;76;51432;-73
2023/10/23 08:46:43;;;;;;;9.83;3.65;;;;;;;21.21;51.92;100880.78;2337840;76;51530;-74
2023/10/23 08:49:45;;;;;;;9.93;3.60;;;;;;;21.18;51.95;100881.17;2339751;75;51129;-74
2023/10/23 08:53:01;;;;;;;10.10;3.90;;;;;;;21.15;51.99;100878.88;2313190;76;51602;-74
2023/10/23 08:56:04;;;;;;;14.33;3.72;;;;;;;21.08;52.09;100880.98;2336488;76;22260;-74
2023/10/23 08:59:06;;;;;;;7.78;3.33;;;;;;;21.06;52.13;100877.65;2287486;76;50949;-74
2023/10/23 09:02:08;;;;;;;8.00;3.22;;;;;;;21.01;52.23;100880.09;2313078;76;51431;-74
2023/10/23 09:05:11;;;;;;;12.65;3.60;;;;;;;21.01;52.30;100888.67;2313730;76;50311;-74
2023/10/23 09:08:13;;;;;;;13.22;3.65;;;;;;;21.04;52.24;100881.07;2313382;76;51415;-75
2023/10/23 09:11:15;;;;;;;7.28;3.67;;;;;;;21.07;52.23;100872.61;2330113;75;51547;-75
2023/10/23 09:14:25;;;;;;;7.25;3.72;;;;;;;21.13;52.14;100875.55;2323155;74;52392;-75
2023/10/23 09:17:27;;;;;;;9.03;3.42;;;;;;;21.19;51.99;100870.72;2297592;76;51531;-75
2023/10/23 09:20:29;;;;;;;10.53;3.75;;;;;;;21.21;51.86;100876.23;2323743;76;51423;-75
2023/10/23 09:23:32;;;;;;;8.80;3.77;;;;;;;21.19;51.86;100870.20;2271586;76;52580;-75
2023/10/23 09:26:34;;;;;;;10.93;3.85;;;;;;;21.18;51.87;100870.41;2297177;76;51511;-74
2023/10/23 09:29:36;;;;;;;9.58;3.83;;;;;;;21.14;51.91;100868.61;2323806;76;50291;-75
2023/10/23 09:32:39;;;;;;;11.57;3.87;;;;;;;21.12;51.98;100868.48;2297154;76;50625;-75
2023/10/23 09:35:41;;;;;;;10.38;4.12;;;;;;;21.08;52.03;100871.56;2323735;76;51503;-75
2023/10/23 09:38:44;;;;;;;12.30;4.28;;;;;;;21.04;52.12;100872.14;2323389;76;51761;-74
2023/10/23 09:41:46;;;;;;;8.88;3.92;;;;;;;21.04;52.15;100875.69;2324448;76;51457;-75
2023/10/23 09:44:49;;;;;;;10.35;3.95;;;;;;;21.06;52.15;100874.13;2325391;75;50414;-75
2023/10/23 09:47:51;;;;;;;7.60;3.85;;;;;;;21.07;52.18;100869.92;2325710;75;50703;-74
2023/10/23 09:50:53;;;;;;;7.72;3.98;;;;;;;21.13;52.04;100865.61;2325749;76;50284;-75
2023/10/23 09:53:59;;;;;;;9.35;4.33;;;;;;;21.17;51.89;100870.94;2325475;76;50606;-75
2023/10/23 09:57:03;;;;;;;9.50;3.72;;;;;;;21.14;51.91;100861.88;2298758;75;49601;-75
2023/10/23 10:00:13;;;;;;;9.70;3.65;;;;;;;21.14;51.91;100869.12;2299057;75;50315;-74
2023/10/23 10:03:18;;;;;;;7.15;3.67;;;;;;;21.11;51.91;100863.63;2298425;76;53255;-75
2023/10/23 10:06:21;;;;;;;8.13;3.83;;;;;;;21.07;51.98;100863.19;2325669;75;51154;-75
2023/10/23 10:09:26;;;;;;;9.43;4.03;;;;;;;21.05;52.04;100867.92;2325560;76;51512;-75
2023/10/23 10:12:28;;;;;;;6.25;3.45;;;;;;;21.02;52.08;100848.14;2274758;76;50172;-75
2023/10/23 10:15:34;;;;;;;7.22;3.45;;;;;;;20.99;52.16;100850.37;2325565;75;50215;-76
2023/10/23 10:18:36;;;;;;;8.48;3.60;;;;;;;20.97;52.25;100854.62;2325563;75;52214;-75
2023/10/23 10:21:57;;;;;;;10.15;3.75;;;;;;;21.05;52.12;100855.81;2325630;75;50722;-75
2023/10/23 10:24:59;;;;;;;8.30;3.70;;;;;;;21.09;52.03;100853.56;2325499;76;53178;-75
2023/10/23 10:28:03;;;;;;;8.33;3.67;;;;;;;21.09;52.01;100856.25;2298629;76;51252;-75
2023/10/23 10:31:05;;;;;;;6.42;3.40;;;;;;;21.12;51.91;100852.34;2326637;76;51464;-75
2023/10/23 10:34:08;;;;;;;8.73;4.10;;;;;;;21.10;51.93;100853.89;2298716;76;51482;-75
2023/10/23 10:37:10;;;;;;;8.45;3.72;;;;;;;21.07;51.96;100848.39;2273568;75;52347;-74
2023/10/23 10:40:12;;;;;;;6.55;3.75;;;;;;;21.09;51.92;100851.73;2327172;76;51672;-75
2023/10/23 10:43:21;;;;;;;7.10;3.70;;;;;;;21.05;51.98;100850.95;2300718;76;50258;-75
2023/10/23 10:46:24;;;;;;;5.95;3.40;;;;;;;21.00;52.08;100852.88;2323982;76;22826;-74
2023/10/23 10:49:28;;;;;;;7.53;3.70;;;;;;;20.98;52.10;100850.06;2297511;76;50392;-72
2023/10/23 10:52:39;;;;;;;7.65;3.90;;;;;;;20.96;52.18;100851.63;2271672;76;51252;-75
2023/10/23 10:55:43;;;;;;;8.30;3.72;;;;;;;21.02;52.15;100841.42;2323320;76;50665;-75
2023/10/23 10:58:45;;;;;;;6.70;3.55;;;;;;;21.04;52.12;100838.02;2297495;76;50662;-75
2023/10/23 11:01:48;;;;;;;5.10;3.20;;;;;;;21.09;51.94;100826.17;2296933;76;51224;-75
2023/10/23 11:04:51;;;;;;;5.72;3.30;;;;;;;21.10;51.89;100833.72;2323468;76;50927;-75
2023/10/23 11:07:54;;;;;;;9.28;3.70;;;;;;;21.09;51.87;100824.82;2323125;76;50697;-74
2023/10/23 11:10:59;;;;;;;9.58;3.45;;;;;;;21.05;51.94;100820.84;2294282;76;50278;-74
2023/10/23 11:14:01;;;;;;;;;;;;;;;21.02;52.01;100829.83;2326557;76;50317;-74
2023/10/23 11:17:05;;;;;;;6.25;3.27;;;;;;;20.96;52.10;100819.83;2323662;76;50693;-75
2023/10/23 11:20:11;;;;;;;6.30;3.52;;;;;;;20.98;52.09;100817.78;2323576;76;50486;-75
2023/10/23 11:23:18;;;;;;;5.10;2.95;;;;;;;20.94;52.13;100817.35;2296763;76;49524;-75
2023/10/23 11:26:20;;;;;;;6.78;3.45;;;;;;;20.94;52.18;100817.35;2296503;76;52288;-75
2023/10/23 11:29:23;;;;;;;6.37;3.10;;;;;;;20.96;52.18;100815.80;2297186;76;50680;-74
2023/10/23 11:32:25;;;;;;;7.12;3.40;;;;;;;20.99;52.17;100814.91;2296941;76;51418;-74
2023/10/23 11:35:33;;;;;;;8.00;3.40;;;;;;;21.01;52.08;100808.80;2271740;76;52336;-74
2023/10/23 11:38:38;;;;;;;7.83;3.50;;;;;;;21.06;51.96;100810.91;2323752;76;51433;-73
2023/10/23 11:41:40;;;;;;;5.53;3.33;;;;;;;21.03;51.98;100820.20;2320678;76;52458;-74
2023/10/23 11:44:43;;;;;;;7.30;2.87;;;;;;;21.02;51.96;100810.48;2298333;76;51219;-74
2023/10/23 11:47:45;;;;;;;6.22;3.08;;;;;;;21.00;51.99;100808.49;2298915;76;51499;-75
2023/10/23 11:50:47;;;;;;;6.15;3.12;;;;;;;20.97;52.01;100815.61;2325665;76;50696;-73
2023/10/23 11:53:50;;;;;;;5.58;3.22;;;;;;;20.93;52.12;100813.50;2325105;75;51203;-74
2023/10/23 11:56:52;;;;;;;6.33;3.33;;;;;;;20.92;52.11;100809.98;2325801;76;50320;-73
2023/10/23 11:59:54;;;;;;;5.65;3.12;;;;;;;20.89;52.18;100813.06;2298796;76;51460;-73
2023/10/23 12:02:56;;;;;;;5.00;3.00;;;;;;;20.91;52.21;100812.86;2272427;76;50592;-74
2023/10/23 12:06:01;;;;;;;5.65;3.05;;;;;;;20.97;52.12;100816.95;2326076;76;50364;-74
2023/10/23 12:09:04;;;;;;;8.00;2.92;;;;;;;21.02;52.04;100815.03;2326249;76;22390;-75
2023/10/23 12:12:06;;;;;;;5.42;2.77;;;;;;;21.00;52.02;100812.53;2291173;76;51525;-74
2023/10/23 12:15:09;;;;;;;4.25;2.70;;;;;;;21.00;51.97;100814.39;2286416;76;50270;-73
2023/10/23 12:18:11;;;;;;;4.55;2.90;;;;;;;20.99;52.00;100813.56;2262011;76;51725;-75
2023/10/23 12:21:14;;;;;;;6.55;2.77;;;;;;;20.97;51.99;100812.09;2338549;76;51731;-74
2023/10/23 12:24:16;;;;;;;5.75;3.33;;;;;;;20.94;52.07;100810.63;2313898;76;50664;-74
2023/10/23 12:27:18;;;;;;;7.80;3.25;;;;;;;20.93;52.08;100818.36;2313711;76;50362;-73
2023/10/23 12:30:21;;;;;;;4.90;2.70;;;;;;;20.90;52.14;100816.58;2313783;76;50246;-73
2023/10/23 12:33:23;;;;;;;5.92;3.27;;;;;;;20.87;52.18;100811.91;2287769;76;49608;-73
2023/10/23 12:36:25;;;;;;;5.47;2.92;;;;;;;20.83;52.27;100801.72;2338203;76;50609;-72
2023/10/23 12:39:27;;;;;;;5.80;2.77;;;;;;;20.88;52.24;100806.00;2286701;76;50671;-73
2023/10/23 12:42:30;;;;;;;4.55;2.80;;;;;;;20.94;52.13;100798.52;2327167;75;51776;-73
2023/10/23 12:45:32;;;;;;;6.12;3.08;;;;;;;21.00;51.97;100793.70;2337827;76;50305;-73
2023/10/23 12:48:35;;;;;;;6.05;3.15;;;;;;;21.05;51.79;100791.25;2313270;76;50004;-73
2023/10/23 12:51:37;;;;;;;6.35;3.12;;;;;;;20.96;51.96;100791.09;2286718;76;51635;-75
2023/10/23 12:54:39;;;;;;;3.27;2.60;;;;;;;20.95;52.00;100789.94;2337747;76;50605;-75
2023/10/23 12:57:42;;;;;;;3.87;2.87;;;;;;;20.93;52.00;100786.08;2287644;76;51227;-74
2023/10/23 13:00:44;;;;;;;4.53;2.70;;;;;;;20.90;52.07;100781.62;2313534;76;50437;-75
2023/10/23 13:03:46;;;;;;;4.55;2.67;;;;;;;20.89;52.08;100780.80;2337806;76;50241;-74
2023/10/23 13:06:49;;;;;;;5.53;2.77;;;;;;;20.90;52.01;100781.09;2313097;76;51635;-74
2023/10/23 13:09:51;;;;;;;4.62;2.98;;;;;;;20.87;52.16;100773.42;2336804;76;51585;-74
2023/10/23 13:12:53;;;;;;;4.45;2.92;;;;;;;20.89;52.16;100774.06;2329965;75;50906;-73
2023/10/23 13:15:55;;;;;;;3.80;2.65;;;;;;;20.94;52.12;100781.04;2299017;76;50262;-73
2023/10/23 13:18:58;;;;;;;4.22;2.85;;;;;;;21.00;51.96;100778.90;2299122;76;50619;-74
2023/10/23 13:22:00;;;;;;;3.60;2.75;;;;;;;21.01;51.90;100786.45;2299004;76;50839;-74
2023/10/23 13:25:06;;;;;;;4.90;2.80;;;;;;;20.99;51.90;100776.39;2299034;76;51514;-74
2023/10/23 13:28:07;;;;;;;;;;;;;;;20.96;51.94;100770.92;2302694;76;51490;-74
2023/10/23 13:31:10;;;;;;;6.60;2.70;;;;;;;20.94;52.01;100771.63;2297652;76;50815;-73
2023/10/23 13:34:12;;;;;;;4.35;2.77;;;;;;;20.93;52.02;100765.91;2325825;76;51533;-74
2023/10/23 13:37:14;;;;;;;4.50;3.02;;;;;;;20.89;52.08;100759.27;2326515;75;50068;-73
2023/10/23 13:40:16;;;;;;;5.50;2.95;;;;;;;20.86;52.13;100765.87;2302037;75;51917;-73
2023/10/23 13:43:19;;;;;;;5.72;2.90;;;;;;;20.81;52.23;100764.28;2288017;77;51682;-74
2023/10/23 13:46:21;;;;;;;4.83;2.62;;;;;;;20.87;52.21;100757.29;2223010;79;51554;-77
2023/10/23 13:49:24;;;;;;;4.58;2.77;;;;;;;20.89;52.21;100761.97;2223333;78;50672;-73
2023/10/23 13:52:26;;;;;;;3.27;2.47;;;;;;;20.95;52.02;100771.11;2225121;79;51445;-75
2023/10/23 13:55:29;;;;;;;3.62;2.77;;;;;;;20.92;52.08;100766.95;2196198;79;51743;-74
2023/10/23 13:58:31;;;;;;;4.10;2.72;;;;;;;20.89;52.12;100761.97;2260873;77;51316;-74
2023/10/23 14:01:33;;;;;;;3.72;2.50;;;;;;;20.88;52.15;100760.28;2287596;77;51417;-73
2023/10/23 14:04:35;;;;;;;5.55;2.33;;;;;;;20.84;52.13;100761.20;2238334;79;52360;-73